Time;durP1;ratioP1;P1;durP2;ratioP2;P2;SDS_P1;SDS_P2;PMS_P1;PMS_P2;Temp;Humidity;BMP_temperature;BMP_pressure;BME280_temperature;BME280_humidity;BME280_pressure;Samples;Min_cycle;Max_cycle;Signal;HPM_P1;HPM_P2
2022/09/06 00:01:25;;;;;;;4.63;4.10;;;15.50;99.90;;;;;;5123163;28;20191;-83
2022/09/06 00:03:50;;;;;;;6.27;3.90;;;15.50;99.90;;;;;;5123929;28;20278;-83
2022/09/06 00:06:18;;;;;;;4.50;3.97;;;15.50;99.90;;;;;;5127422;28;20663;-83
2022/09/06 00:08:45;;;;;;;5.13;3.70;;;15.40;99.90;;;;;;5116940;28;20268;-83
2022/09/06 00:11:12;;;;;;;5.83;4.13;;;15.40;99.90;;;;;;5116663;28;20227;-83
2022/09/06 00:13:38;;;;;;;4.40;3.83;;;15.30;99.90;;;;;;5117524;28;20185;-82
2022/09/06 00:16:09;;;;;;;6.17;4.33;;;15.30;99.90;;;;;;5118184;28;20180;-83
2022/09/06 00:18:35;;;;;;;6.13;4.83;;;15.30;99.90;;;;;;5117168;28;20162;-83
2022/09/06 00:21:02;;;;;;;6.40;3.67;;;15.20;99.90;;;;;;5116476;28;20197;-82
2022/09/06 00:23:28;;;;;;;6.30;4.60;;;15.20;99.90;;;;;;5116561;28;20176;-83
2022/09/06 00:26:01;;;;;;;6.90;4.93;;;15.20;99.90;;;;;;5118096;28;20520;-84
2022/09/06 00:28:27;;;;;;;7.13;4.43;;;15.20;99.90;;;;;;5118029;28;20157;-83
2022/09/06 00:30:52;;;;;;;7.73;4.10;;;15.30;99.90;;;;;;5116376;28;20201;-85
2022/09/06 00:33:18;;;;;;;4.80;3.97;;;15.30;99.90;;;;;;5116736;28;20173;-83
2022/09/06 00:35:46;;;;;;;6.10;4.63;;;15.30;99.90;;;;;;5118152;28;20171;-84
2022/09/06 00:38:11;;;;;;;4.70;4.00;;;15.30;99.90;;;;;;5116639;28;20178;-83
2022/09/06 00:40:38;;;;;;;5.60;3.90;;;15.40;99.90;;;;;;5118389;28;20237;-83
2022/09/06 00:43:03;;;;;;;5.90;3.67;;;15.40;99.90;;;;;;5116963;28;20178;-84
2022/09/06 00:45:30;;;;;;;3.70;3.33;;;15.40;99.90;;;;;;5118048;28;20196;-83
2022/09/06 00:47:58;;;;;;;3.97;3.60;;;15.40;99.90;;;;;;5117474;28;20207;-83
2022/09/06 00:50:24;;;;;;;6.50;3.67;;;15.50;99.90;;;;;;5115847;28;20192;-83
2022/09/06 00:52:52;;;;;;;7.93;3.30;;;15.40;99.90;;;;;;5117017;28;20206;-84
2022/09/06 00:55:18;;;;;;;5.90;3.33;;;15.50;99.90;;;;;;5116301;28;20176;-83
2022/09/06 00:57:45;;;;;;;3.87;2.93;;;15.50;99.90;;;;;;5117478;28;20696;-83
2022/09/06 01:00:12;;;;;;;4.23;3.63;;;15.50;99.90;;;;;;5116285;28;20177;-82
2022/09/06 01:02:37;;;;;;;5.20;3.10;;;15.50;99.90;;;;;;5116267;28;20168;-83
2022/09/06 01:05:04;;;;;;;4.87;3.50;;;15.50;99.90;;;;;;5117994;28;20222;-82
2022/09/06 01:07:46;;;;;;;3.63;3.20;;;15.50;99.90;;;;;;5117324;28;20637;-81
2022/09/06 01:10:31;;;;;;;3.73;3.40;;;15.50;99.90;;;;;;5116199;28;20200;-83
2022/09/06 01:12:57;;;;;;;3.67;3.30;;;15.50;99.90;;;;;;5115720;28;20593;-82
2022/09/06 01:15:57;;;;;;;5.30;3.10;;;15.50;99.90;;;;;;5117749;28;20524;-82
2022/09/06 01:18:48;;;;;;;4.07;3.17;;;15.50;99.90;;;;;;5117251;28;20518;-83
2022/09/06 01:21:28;;;;;;;5.10;3.27;;;15.50;99.90;;;;;;5109336;28;20257;-82
2022/09/06 01:24:18;;;;;;;6.10;3.13;;;15.50;99.90;;;;;;5116945;28;20233;-83
2022/09/06 01:27:11;;;;;;;4.07;2.90;;;15.50;99.90;;;;;;5115893;28;20171;-83
2022/09/06 01:29:46;;;;;;;4.77;2.87;;;15.50;99.90;;;;;;5116785;28;20179;-83
2022/09/06 01:32:12;;;;;;;5.30;3.00;;;15.50;99.90;;;;;;5116846;28;20187;-84
2022/09/06 01:34:44;;;;;;;4.60;2.97;;;15.50;99.90;;;;;;5114713;28;20243;-82
2022/09/06 01:37:16;;;;;;;4.00;3.00;;;15.50;99.90;;;;;;5114920;28;20171;-82
2022/09/06 01:39:42;;;;;;;3.63;3.30;;;15.50;99.90;;;;;;5116226;28;20542;-81
2022/09/06 01:42:19;;;;;;;5.03;2.87;;;15.50;99.90;;;;;;5115937;28;20267;-81
2022/09/06 01:45:00;;;;;;;6.07;2.77;;;15.50;99.90;;;;;;5114630;28;20282;-80
2022/09/06 01:47:34;;;;;;;6.00;3.10;;;15.50;99.90;;;;;;5116712;28;20152;-83
2022/09/06 01:50:18;;;;;;;5.20;3.07;;;15.50;99.90;;;;;;5115515;28;20171;-81
2022/09/06 01:53:08;;;;;;;6.10;3.20;;;15.50;99.90;;;;;;5115712;28;20175;-82
2022/09/06 01:55:51;;;;;;;5.00;3.17;;;15.50;99.90;;;;;;5117191;28;20659;-83
2022/09/06 01:58:23;;;;;;;4.47;3.13;;;15.40;99.90;;;;;;5115254;28;20226;-84
2022/09/06 02:01:03;;;;;;;4.63;3.03;;;15.40;99.90;;;;;;5117028;28;20222;-83
2022/09/06 02:04:01;;;;;;;4.13;2.80;;;15.40;99.90;;;;;;5115177;28;20251;-82
2022/09/06 02:06:31;;;;;;;3.77;3.07;;;15.50;99.90;;;;;;5092584;28;20664;-83
2022/09/06 02:09:04;;;;;;;7.17;2.87;;;15.50;99.90;;;;;;5116529;28;20637;-82
2022/09/06 02:11:37;;;;;;;3.10;2.80;;;15.50;99.90;;;;;;5115145;28;20200;-83
2022/09/06 02:14:12;;;;;;;3.80;2.83;;;15.50;99.90;;;;;;5115427;28;20195;-85
2022/09/06 02:16:42;;;;;;;2.90;2.50;;;15.50;99.90;;;;;;5115963;28;20632;-82
2022/09/06 02:19:20;;;;;;;3.30;2.93;;;15.50;99.90;;;;;;5114967;28;20182;-83
2022/09/06 02:21:47;;;;;;;4.80;2.73;;;15.50;99.90;;;;;;5116617;28;20676;-84
2022/09/06 02:24:34;;;;;;;2.93;2.60;;;15.40;99.90;;;;;;5115734;28;20237;-82
2022/09/06 02:26:59;;;;;;;3.10;2.50;;;15.40;99.90;;;;;;5116244;28;20236;-84
2022/09/06 02:29:26;;;;;;;3.13;2.60;;;;;;;;;;5115225;28;20199;-84
2022/09/06 02:31:58;;;;;;;7.70;2.70;;;15.50;99.90;;;;;;5121010;28;20191;-83
2022/09/06 02:34:24;;;;;;;3.33;2.70;;;15.40;99.90;;;;;;5120844;27;20164;-83
2022/09/06 02:36:50;;;;;;;3.90;2.90;;;;;;;;;;5119344;28;20179;-83
2022/09/06 02:39:16;;;;;;;4.43;3.00;;;15.40;99.90;;;;;;5121031;28;20641;-83
2022/09/06 02:41:45;;;;;;;3.70;2.70;;;15.40;99.90;;;;;;5120965;28;20191;-82
2022/09/06 02:44:11;;;;;;;5.73;3.03;;;15.40;99.90;;;;;;5119905;28;20248;-82
2022/09/06 02:46:37;;;;;;;3.37;2.67;;;;;;;;;;5119637;28;20176;-81
2022/09/06 02:49:02;;;;;;;4.30;2.97;;;15.30;99.90;;;;;;5120030;28;20649;-82
2022/09/06 02:51:28;;;;;;;4.53;2.93;;;;;;;;;;5121348;27;20252;-85
2022/09/06 02:53:54;;;;;;;4.17;2.80;;;15.30;99.90;;;;;;5121239;28;20172;-82
2022/09/06 02:56:20;;;;;;;3.50;2.53;;;15.30;99.90;;;;;;5121261;28;20195;-82
2022/09/06 02:58:46;;;;;;;2.97;2.67;;;;;;;;;;5121816;28;20636;-83
2022/09/06 03:01:11;;;;;;;3.97;2.57;;;15.30;99.90;;;;;;5122273;28;20527;-82
2022/09/06 03:03:38;;;;;;;3.53;2.60;;;;;;;;;;5123034;28;20185;-83
2022/09/06 03:06:04;;;;;;;3.23;2.77;;;15.30;99.90;;;;;;5121894;28;20175;-83
2022/09/06 03:08:32;;;;;;;4.03;2.93;;;15.30;99.90;;;;;;5122424;28;20175;-84
2022/09/06 03:10:59;;;;;;;3.07;2.50;;;15.30;99.90;;;;;;5123852;28;20228;-81
2022/09/06 03:13:25;;;;;;;3.67;3.03;;;;;;;;;;5119009;28;20648;-81
2022/09/06 03:15:56;;;;;;;2.77;2.47;;;15.30;99.90;;;;;;5117760;28;20180;-82
2022/09/06 03:18:27;;;;;;;5.77;3.30;;;15.30;99.90;;;;;;5119071;28;20168;-83
2022/09/06 03:20:54;;;;;;;4.40;3.20;;;15.20;99.90;;;;;;5118055;28;20206;-84
2022/09/06 03:23:23;;;;;;;2.70;2.33;;;15.30;99.90;;;;;;5119754;28;20667;-82
2022/09/06 03:25:49;;;;;;;2.77;2.57;;;15.20;99.90;;;;;;5118072;28;20584;-82
2022/09/06 03:28:16;;;;;;;4.80;2.70;;;15.20;99.90;;;;;;5119656;28;20661;-82
2022/09/06 03:30:46;;;;;;;3.80;2.83;;;15.30;99.90;;;;;;5119728;28;20192;-82
2022/09/06 03:33:12;;;;;;;4.23;2.70;;;;;;;;;;5119616;28;20160;-83
2022/09/06 03:35:39;;;;;;;4.07;2.50;;;15.30;99.90;;;;;;5117854;28;20275;-81
2022/09/06 03:38:04;;;;;;;3.00;2.70;;;15.30;99.90;;;;;;5118053;28;20186;-85
2022/09/06 03:40:31;;;;;;;2.97;2.60;;;;;;;;;;5119426;28;20278;-83
2022/09/06 03:42:56;;;;;;;3.07;2.73;;;15.30;99.90;;;;;;5117389;28;20187;-85
2022/09/06 03:45:24;;;;;;;3.93;2.70;;;15.30;99.90;;;;;;5119394;28;20203;-84
2022/09/06 03:47:50;;;;;;;4.37;2.73;;;15.30;99.90;;;;;;5119457;28;20677;-82
2022/09/06 03:50:16;;;;;;;2.83;2.50;;;;;;;;;;5118020;28;20203;-83
2022/09/06 03:52:41;;;;;;;3.13;2.60;;;15.40;99.90;;;;;;5119494;28;20171;-83
2022/09/06 03:55:08;;;;;;;5.30;2.40;;;15.40;99.90;;;;;;5118437;28;20514;-83
2022/09/06 03:57:33;;;;;;;4.97;2.73;;;15.40;99.90;;;;;;5117965;28;20191;-84
2022/09/06 03:59:59;;;;;;;4.67;2.90;;;;;;;;;;5119099;28;20518;-85
2022/09/06 04:02:25;;;;;;;4.23;2.87;;;15.40;99.90;;;;;;5119224;28;20186;-82
2022/09/06 04:04:54;;;;;;;3.10;2.80;;;;;;;;;;5117770;28;20203;-82
2022/09/06 04:07:21;;;;;;;4.80;2.80;;;15.40;99.90;;;;;;5118974;28;20168;-83
2022/09/06 04:09:47;;;;;;;3.90;2.53;;;15.40;99.90;;;;;;5119225;28;20175;-82
2022/09/06 04:12:13;;;;;;;3.00;2.60;;;15.40;99.90;;;;;;5118473;28;20553;-82
2022/09/06 04:14:38;;;;;;;2.70;2.50;;;15.40;99.90;;;;;;5119035;28;20187;-84
2022/09/06 04:17:04;;;;;;;6.77;3.00;;;15.40;99.90;;;;;;5117380;28;20180;-85
2022/09/06 04:19:30;;;;;;;6.97;2.80;;;15.40;99.90;;;;;;5117557;28;20186;-84
2022/09/06 04:21:56;;;;;;;3.37;2.73;;;;;;;;;;5117095;28;20199;-83
2022/09/06 04:24:22;;;;;;;3.23;2.73;;;15.40;99.90;;;;;;5118225;28;20203;-83
2022/09/06 04:26:48;;;;;;;5.40;2.47;;;;;;;;;;5117145;28;20586;-82
2022/09/06 04:29:13;;;;;;;3.87;2.40;;;15.40;99.90;;;;;;5116770;28;20244;-84
2022/09/06 04:31:39;;;;;;;3.53;2.40;;;;;;;;;;5118176;28;20649;-85
2022/09/06 04:34:05;;;;;;;3.87;2.47;;;15.60;99.90;;;;;;5118180;28;20183;-82
2022/09/06 04:36:31;;;;;;;2.87;2.20;;;;;;;;;;5116886;28;20175;-82
2022/09/06 04:38:57;;;;;;;2.73;2.23;;;15.70;99.90;;;;;;5116689;28;20684;-81
2022/09/06 06:17:37;;;;;;;5.13;2.30;;;16.10;99.90;;;;;;5141171;27;20281;-83
2022/09/06 06:20:03;;;;;;;4.83;3.10;;;16.10;99.90;;;;;;5134900;28;20261;-83
2022/09/06 06:22:29;;;;;;;5.53;2.20;;;16.10;99.90;;;;;;5132258;28;20224;-83
2022/09/06 06:24:55;;;;;;;5.70;2.30;;;16.10;99.90;;;;;;5132584;28;20266;-83
2022/09/06 06:27:20;;;;;;;6.87;3.13;;;16.10;99.90;;;;;;5132504;28;20278;-82
2022/09/06 06:29:46;;;;;;;7.27;2.57;;;16.20;99.90;;;;;;5131934;28;20247;-82
2022/09/06 06:32:12;;;;;;;7.70;1.90;;;16.20;99.90;;;;;;5133520;27;20198;-82
2022/09/06 06:34:37;;;;;;;6.07;2.57;;;16.30;99.90;;;;;;5133930;27;20176;-82
2022/09/06 06:37:03;;;;;;;3.93;1.90;;;16.30;99.90;;;;;;5133330;27;20190;-82
2022/09/06 06:39:29;;;;;;;2.47;1.67;;;16.30;99.90;;;;;;5132528;28;20171;-83
2022/09/06 06:41:55;;;;;;;7.57;2.13;;;16.30;99.90;;;;;;5131849;28;20579;-82
2022/09/06 06:44:20;;;;;;;7.07;1.80;;;16.40;99.90;;;;;;5131782;28;20176;-81
2022/09/06 06:46:46;;;;;;;3.27;1.63;;;16.50;99.90;;;;;;5131789;28;20226;-81
2022/09/06 06:49:11;;;;;;;4.43;1.90;;;16.50;99.90;;;;;;5132388;27;20248;-81
2022/09/06 06:51:38;;;;;;;5.70;1.67;;;16.60;99.90;;;;;;5132611;27;20187;-80
2022/09/06 06:54:04;;;;;;;3.17;1.50;;;16.70;99.90;;;;;;5131513;28;20175;-82
2022/09/06 06:56:31;;;;;;;3.67;1.50;;;16.80;99.90;;;;;;5131335;28;20239;-83
2022/09/06 06:59:01;;;;;;;2.47;1.40;;;16.90;99.90;;;;;;5132293;27;20210;-82
2022/09/06 07:01:29;;;;;;;1.67;1.33;;;17.00;99.90;;;;;;5131339;28;20216;-81
2022/09/06 07:03:55;;;;;;;4.10;1.30;;;17.00;99.90;;;;;;5132851;27;20191;-82
2022/09/06 07:06:21;;;;;;;2.13;1.20;;;17.00;99.90;;;;;;5131296;28;20183;-82
2022/09/06 07:08:47;;;;;;;3.50;1.40;;;17.00;99.90;;;;;;5132602;27;20549;-81
2022/09/06 07:11:15;;;;;;;2.73;1.50;;;17.00;99.90;;;;;;5132325;27;20199;-82
2022/09/06 07:13:41;;;;;;;4.70;1.40;;;17.10;99.90;;;;;;5132539;27;20183;-82
2022/09/06 07:16:13;;;;;;;4.63;1.40;;;17.10;99.90;;;;;;5132690;28;20207;-82
2022/09/06 07:18:44;;;;;;;2.80;1.80;;;17.20;99.90;;;;;;5132568;27;20176;-82
2022/09/06 07:21:12;;;;;;;2.80;1.30;;;17.20;99.90;;;;;;5131647;28;20220;-81
2022/09/06 07:23:38;;;;;;;1.93;1.40;;;17.40;99.90;;;;;;5131229;28;20184;-81
2022/09/06 07:26:04;;;;;;;2.20;1.40;;;17.50;99.90;;;;;;5132483;27;20171;-81
2022/09/06 07:28:30;;;;;;;1.83;1.40;;;17.60;99.90;;;;;;5119853;28;20205;-81
2022/09/06 07:30:57;;;;;;;1.90;1.10;;;17.80;99.90;;;;;;5117327;28;20199;-81
2022/09/06 07:33:23;;;;;;;3.80;1.27;;;17.90;99.90;;;;;;5117108;28;20227;-81
2022/09/06 07:35:58;;;;;;;3.53;1.27;;;17.90;99.90;;;;;;5117062;28;20201;-81
2022/09/06 07:38:23;;;;;;;4.23;1.67;;;17.80;99.90;;;;;;5117904;28;20160;-81
2022/09/06 07:40:59;;;;;;;4.03;1.40;;;17.80;99.90;;;;;;5116969;28;20736;-82
2022/09/06 07:43:26;;;;;;;2.37;1.30;;;17.80;99.90;;;;;;5116716;28;20202;-81
2022/09/06 07:45:59;;;;;;;2.10;1.50;;;17.80;99.90;;;;;;5117424;28;20172;-80
2022/09/06 07:48:26;;;;;;;2.20;1.30;;;17.80;99.90;;;;;;5117554;28;20177;-81
2022/09/06 07:50:52;;;;;;;4.87;1.30;;;17.70;99.90;;;;;;5118018;28;20191;-83
2022/09/06 07:53:18;;;;;;;2.47;1.57;;;17.80;99.90;;;;;;5116728;28;20201;-83
2022/09/06 07:55:44;;;;;;;1.50;1.27;;;17.80;99.90;;;;;;5117671;28;20688;-82
2022/09/06 07:58:09;;;;;;;1.60;1.30;;;17.80;99.90;;;;;;5118289;28;20597;-83
2022/09/06 08:00:37;;;;;;;3.93;1.20;;;17.80;99.90;;;;;;5118049;28;20578;-82
2022/09/06 08:03:02;;;;;;;3.03;1.37;;;17.80;99.90;;;;;;5116460;28;20201;-82
2022/09/06 08:05:28;;;;;;;3.47;1.60;;;17.90;99.90;;;;;;5116729;28;20174;-82
2022/09/06 08:07:54;;;;;;;1.67;1.20;;;18.20;99.90;;;;;;5117521;28;20250;-83
2022/09/06 08:10:19;;;;;;;2.63;1.17;;;18.50;99.90;;;;;;5116054;28;20205;-82
2022/09/06 08:12:45;;;;;;;1.90;1.20;;;19.00;99.90;;;;;;5117848;28;20164;-81
2022/09/06 08:15:11;;;;;;;2.60;1.30;;;19.40;99.90;;;;;;5118509;28;20172;-82
2022/09/06 08:17:36;;;;;;;3.40;1.10;;;19.60;99.90;;;;;;5116919;28;20279;-82
2022/09/06 08:20:03;;;;;;;2.20;1.17;;;19.70;99.90;;;;;;5117289;28;20172;-82
2022/09/06 08:22:32;;;;;;;1.67;1.03;;;19.90;99.90;;;;;;5117182;28;20660;-82
2022/09/06 08:24:58;;;;;;;5.10;1.13;;;20.10;99.90;;;;;;5118744;28;20168;-82
2022/09/06 08:27:24;;;;;;;4.50;1.20;;;20.40;99.90;;;;;;5118304;28;20249;-83
2022/09/06 08:29:51;;;;;;;1.57;1.00;;;20.80;99.90;;;;;;5117296;28;20179;-82
2022/09/06 08:32:18;;;;;;;2.50;1.60;;;21.00;99.90;;;;;;5116683;28;20290;-85
2022/09/06 08:34:43;;;;;;;3.67;1.50;;;21.40;99.90;;;;;;5118113;28;20172;-83
2022/09/06 08:37:09;;;;;;;4.13;1.40;;;21.80;99.90;;;;;;5118164;28;20199;-82
2022/09/06 08:39:35;;;;;;;4.10;1.63;;;22.20;99.90;;;;;;5117951;28;20236;-83
2022/09/06 08:42:04;;;;;;;3.10;1.20;;;22.50;99.90;;;;;;5118295;28;20192;-85
2022/09/06 08:44:51;;;;;;;2.53;1.10;;;23.00;99.90;;;;;;5118850;28;20171;-84
2022/09/06 08:47:19;;;;;;;2.20;1.00;;;23.70;99.90;;;;;;5117970;28;20155;-84
2022/09/06 08:49:47;;;;;;;5.30;1.50;;;24.10;99.90;;;;;;5118281;28;20176;-82
2022/09/06 08:52:43;;;;;;;2.00;0.97;;;24.00;99.90;;;;;;5118440;27;20249;-84
2022/09/06 08:55:12;;;;;;;1.40;1.00;;;23.80;99.90;;;;;;5116840;28;20618;-82
2022/09/06 08:57:53;;;;;;;2.33;1.40;;;23.80;99.90;;;;;;5118469;28;20169;-84
2022/09/06 09:00:19;;;;;;;2.60;1.20;;;24.10;99.90;;;;;;5117334;28;20201;-83
2022/09/06 09:02:56;;;;;;;5.00;1.30;;;24.10;99.90;;;;;;5118610;28;20167;-84
2022/09/06 09:05:30;;;;;;;1.97;1.30;;;24.10;99.90;;;;;;5119835;28;20228;-83
2022/09/06 09:08:17;;;;;;;2.50;1.30;;;24.10;99.90;;;;;;5118365;28;20695;-84
2022/09/06 09:11:02;;;;;;;2.70;1.40;;;24.10;99.90;;;;;;5118417;28;20236;-82
2022/09/06 09:13:58;;;;;;;2.13;1.50;;;24.10;99.90;;;;;;5117576;28;20229;-84
2022/09/06 09:16:24;;;;;;;2.07;1.10;;;24.30;99.90;;;;;;5116234;28;20234;-83
2022/09/06 09:18:57;;;;;;;2.10;1.20;;;24.40;99.90;;;;;;5117405;28;20182;-85
2022/09/06 09:21:25;;;;;;;2.33;1.50;;;24.30;99.90;;;;;;5119014;28;20213;-83
2022/09/06 09:23:57;;;;;;;2.57;1.37;;;24.20;99.90;;;;;;5119445;27;20645;-84
2022/09/06 09:26:25;;;;;;;4.00;1.30;;;24.00;99.90;;;;;;5118718;28;20199;-82
2022/09/06 09:29:10;;;;;;;1.43;1.07;;;23.80;99.90;;;;;;5118702;28;20198;-82
2022/09/06 09:31:35;;;;;;;5.23;1.43;;;23.70;99.90;;;;;;5120207;28;20184;-83
2022/09/06 09:34:03;;;;;;;2.47;1.20;;;23.60;99.90;;;;;;5118638;28;20246;-81
2022/09/06 09:36:30;;;;;;;2.20;1.17;;;23.80;99.90;;;;;;5116331;28;20277;-84
2022/09/06 09:38:57;;;;;;;3.83;1.57;;;24.20;99.90;;;;;;5114502;28;20267;-83
2022/09/06 09:41:32;;;;;;;2.60;1.23;;;24.60;99.90;;;;;;5115036;28;20286;-84
2022/09/06 09:44:15;;;;;;;4.50;1.40;;;25.10;99.90;;;;;;5115087;28;20261;-84
2022/09/06 09:46:40;;;;;;;3.37;1.23;;;25.60;99.90;;;;;;5116467;28;20243;-83
2022/09/06 09:49:27;;;;;;;2.97;1.20;;;25.80;99.90;;;;;;5116370;28;20177;-80
2022/09/06 09:52:08;;;;;;;3.70;1.20;;;25.90;99.90;;;;;;5114311;28;20202;-81
2022/09/06 09:54:37;;;;;;;3.10;1.30;;;26.20;99.90;;;;;;5116501;28;20195;-81
2022/09/06 09:57:16;;;;;;;2.80;0.90;;;26.50;99.90;;;;;;5115039;28;20199;-82
2022/09/06 09:59:57;;;;;;;3.43;1.30;;;26.40;99.90;;;;;;5116349;28;20197;-81
2022/09/06 10:02:29;;;;;;;5.67;1.50;;;26.30;99.90;;;;;;5114718;28;20242;-84
2022/09/06 10:05:02;;;;;;;3.80;1.57;;;26.30;99.90;;;;;;5115132;28;20191;-82
2022/09/06 10:07:29;;;;;;;4.20;1.27;;;26.50;99.90;;;;;;5114562;28;20256;-82
2022/09/06 10:10:04;;;;;;;3.17;1.00;;;26.70;99.90;;;;;;5114868;28;20630;-83
2022/09/06 10:12:37;;;;;;;5.70;1.53;;;26.60;99.90;;;;;;5116651;28;20160;-82
2022/09/06 10:15:05;;;;;;;2.17;1.10;;;26.70;99.90;;;;;;5116241;28;20646;-83
2022/09/06 10:17:48;;;;;;;2.40;1.23;;;26.70;99.90;;;;;;5116298;28;20186;-84
2022/09/06 10:20:15;;;;;;;4.80;1.43;;;26.70;99.90;;;;;;5117398;28;20156;-84
2022/09/06 10:23:08;;;;;;;1.47;0.90;;;26.90;99.90;;;;;;5120234;28;20177;-82
2022/09/06 10:25:42;;;;;;;8.07;1.73;;;27.10;99.90;;;;;;5120387;28;20204;-83
2022/09/06 10:28:26;;;;;;;4.83;1.63;;;27.30;99.90;;;;;;5121054;28;20178;-83
2022/09/06 10:31:17;;;;;;;9.00;1.90;;;27.30;99.90;;;;;;5119995;28;20194;-83
2022/09/06 10:33:51;;;;;;;9.07;2.53;;;27.10;99.90;;;;;;5119076;28;20217;-84
2022/09/06 10:36:27;;;;;;;6.40;2.00;;;26.90;99.90;;;;;;5120615;28;20181;-84
2022/09/06 10:38:57;;;;;;;6.20;2.00;;;27.20;99.90;;;;;;5119855;28;20172;-84
2022/09/06 10:41:38;;;;;;;8.27;2.20;;;27.50;99.90;;;;;;5120087;28;20189;-86
2022/09/06 10:44:41;;;;;;;7.83;2.17;;;28.00;99.90;;;;;;5118548;28;20183;-85
2022/09/06 10:47:12;;;;;;;9.47;1.97;;;28.40;99.90;;;;;;5118753;28;20264;-83
2022/09/06 10:49:44;;;;;;;6.70;2.17;;;28.40;99.90;;;;;;5118463;28;20179;-84
2022/09/06 10:52:16;;;;;;;10.10;2.27;;;28.30;99.90;;;;;;5118562;28;20223;-86
2022/09/06 10:54:46;;;;;;;12.13;2.40;;;28.40;99.90;;;;;;5119655;28;20154;-84
2022/09/06 10:57:22;;;;;;;6.27;1.73;;;28.40;99.90;;;;;;5118694;28;20268;-85
2022/09/06 11:00:01;;;;;;;6.03;2.20;;;28.50;99.90;;;;;;5116811;28;20216;-85
2022/09/06 11:02:40;;;;;;;8.37;2.33;;;28.80;99.90;;;;;;5118835;28;20170;-85
2022/09/06 11:05:09;;;;;;;7.63;2.00;;;28.90;99.90;;;;;;5120994;28;20630;-85
2022/09/06 11:07:43;;;;;;;10.37;2.30;;;28.70;99.90;;;;;;5123436;28;20188;-85
2022/09/06 11:10:30;;;;;;;6.60;2.40;;;29.20;99.90;;;;;;5122686;28;20166;-82
2022/09/06 11:13:15;;;;;;;10.63;2.50;;;29.30;99.90;;;;;;5121711;28;20174;-84
2022/09/06 11:15:46;;;;;;;11.50;2.40;;;29.60;99.90;;;;;;5121802;28;20193;-85
2022/09/06 11:18:32;;;;;;;9.53;3.37;;;29.60;99.90;;;;;;5121132;28;20261;-84
2022/09/06 11:21:11;;;;;;;7.53;2.40;;;28.40;99.90;;;;;;5123106;28;20244;-85
2022/09/06 11:23:57;;;;;;;9.97;2.50;;;28.00;99.90;;;;;;5122522;28;20253;-85
2022/09/06 11:26:42;;;;;;;7.10;2.10;;;27.10;99.90;;;;;;5122531;28;20209;-85
2022/09/06 11:29:21;;;;;;;11.10;2.50;;;27.60;99.90;;;;;;5122931;28;20710;-84
2022/09/06 11:31:54;;;;;;;4.17;1.80;;;28.10;99.90;;;;;;5122916;28;20546;-84
2022/09/06 11:34:25;;;;;;;7.30;1.97;;;29.10;99.90;;;;;;5122405;28;20148;-85
2022/09/06 11:36:54;;;;;;;9.20;2.43;;;29.30;99.90;;;;;;5121328;28;20541;-81
2022/09/06 11:39:36;;;;;;;10.73;2.53;;;29.90;99.90;;;;;;5120984;28;20173;-80
2022/09/06 11:42:29;;;;;;;6.27;1.93;;;30.80;99.90;;;;;;5119482;28;20208;-83
2022/09/06 11:44:57;;;;;;;7.00;2.27;;;31.00;99.90;;;;;;5121037;28;20222;-81
2022/09/06 11:47:37;;;;;;;9.90;2.73;;;29.70;99.90;;;;;;5117228;28;20300;-81
2022/09/06 11:50:21;;;;;;;6.87;2.00;;;28.60;99.90;;;;;;5119030;28;20176;-80
2022/09/06 11:53:15;;;;;;;8.67;1.70;;;28.40;99.90;;;;;;5119022;28;20643;-81
2022/09/06 11:56:00;;;;;;;8.00;2.17;;;27.70;99.90;;;;;;5117634;28;20199;-80
2022/09/06 11:58:54;;;;;;;7.70;2.20;;;28.20;99.90;;;;;;5118765;28;20154;-80
2022/09/06 12:01:19;;;;;;;11.83;2.23;;;29.90;99.90;;;;;;5118661;28;20673;-80
2022/09/06 12:03:48;;;;;;;5.63;2.03;;;30.10;99.90;;;;;;5117579;28;20177;-80
2022/09/06 12:06:20;;;;;;;9.17;2.33;;;29.90;99.90;;;;;;5119122;28;20201;-81
2022/09/06 12:08:53;;;;;;;10.43;2.43;;;29.40;99.90;;;;;;5119304;27;20176;-81
2022/09/06 12:11:41;;;;;;;5.20;2.40;;;29.40;99.90;;;;;;5118098;28;20198;-83
2022/09/06 12:14:27;;;;;;;8.37;2.40;;;29.70;99.90;;;;;;5119451;28;20661;-82
2022/09/06 12:17:06;;;;;;;7.00;2.20;;;29.80;99.90;;;;;;5107875;28;20235;-81
2022/09/06 12:19:47;;;;;;;11.60;2.60;;;30.40;99.90;;;;;;5118829;28;20196;-84
2022/09/06 12:22:28;;;;;;;8.90;2.40;;;30.70;99.90;;;;;;5120123;28;20188;-81
2022/09/06 12:25:00;;;;;;;7.13;1.83;;;30.60;99.90;;;;;;5121047;28;20174;-82
2022/09/06 12:27:26;;;;;;;7.60;2.40;;;30.70;99.90;;;;;;5119677;28;20244;-80
2022/09/06 12:29:55;;;;;;;9.53;2.80;;;30.30;99.90;;;;;;5122713;28;20185;-81
2022/09/06 12:32:26;;;;;;;7.53;3.00;;;29.40;99.90;;;;;;5125243;28;20176;-81
2022/09/06 12:34:54;;;;;;;9.83;2.37;;;28.60;99.90;;;;;;5126509;28;20525;-82
2022/09/06 12:37:53;;;;;;;10.40;2.43;;;28.20;99.90;;;;;;5121139;28;20175;-79
2022/09/06 12:40:21;;;;;;;12.67;2.57;;;27.30;99.90;;;;;;5110881;28;20694;-80
2022/09/06 12:42:49;;;;;;;8.80;2.03;;;27.30;99.90;;;;;;5118882;28;20174;-81
2022/09/06 12:45:17;;;;;;;3.73;1.93;;;27.30;99.90;;;;;;5118439;28;20195;-80
2022/09/06 12:47:44;;;;;;;13.70;2.63;;;27.30;99.90;;;;;;5117654;28;20204;-80
2022/09/06 12:50:16;;;;;;;9.83;1.73;;;27.50;99.90;;;;;;5118799;28;20173;-80
2022/09/06 12:52:49;;;;;;;11.23;2.20;;;27.50;99.90;;;;;;5119005;28;20168;-80
2022/09/06 12:55:26;;;;;;;7.97;2.47;;;27.40;99.90;;;;;;5118642;28;20647;-80
2022/09/06 12:57:54;;;;;;;5.17;2.10;;;27.10;99.90;;;;;;5119806;28;20155;-80
2022/09/06 13:00:22;;;;;;;10.17;2.40;;;26.40;99.90;;;;;;5119337;28;20323;-80
2022/09/06 13:03:17;;;;;;;8.10;2.10;;;26.40;99.90;;;;;;5117882;28;20639;-81
2022/09/06 13:05:44;;;;;;;7.70;1.93;;;26.50;99.90;;;;;;5118325;28;20196;-81
2022/09/06 13:08:18;;;;;;;8.97;2.07;;;26.40;99.90;;;;;;5118298;28;20176;-81
2022/09/06 13:10:45;;;;;;;7.30;3.00;;;26.30;99.90;;;;;;5118918;28;20263;-83
2022/09/06 13:13:21;;;;;;;8.33;2.60;;;26.10;99.90;;;;;;5117242;28;20180;-81
2022/09/06 13:15:46;;;;;;;7.30;2.20;;;26.00;99.90;;;;;;5118246;28;20632;-81
2022/09/06 13:18:22;;;;;;;9.57;2.40;;;25.80;99.90;;;;;;5118774;28;20171;-84
2022/09/06 13:21:25;;;;;;;13.30;2.57;;;25.50;99.90;;;;;;5117305;28;20205;-84
2022/09/06 13:23:51;;;;;;;39.87;3.40;;;;;;;;;;5107289;28;20190;-85
2022/09/06 13:26:37;;;;;;;8.20;2.33;;;25.20;99.90;;;;;;5116587;28;20225;-85
2022/09/06 13:29:15;;;;;;;18.37;3.80;;;25.20;99.90;;;;;;5117038;28;20568;-84
2022/09/06 13:31:48;;;;;;;8.73;2.00;;;25.00;99.90;;;;;;5117193;28;20530;-83
2022/09/06 13:34:25;;;;;;;8.93;2.33;;;25.00;99.90;;;;;;5117745;28;20176;-83
2022/09/06 13:36:53;;;;;;;8.40;2.50;;;24.90;99.90;;;;;;5117566;28;20171;-85
2022/09/06 13:39:45;;;;;;;9.13;2.30;;;24.80;99.90;;;;;;5118539;28;20191;-85
2022/09/06 13:42:27;;;;;;;7.10;2.30;;;24.70;99.90;;;;;;5116829;28;20286;-84
2022/09/06 13:44:53;;;;;;;8.83;2.37;;;24.60;99.90;;;;;;5116986;28;20176;-84
2022/09/06 13:47:19;;;;;;;8.87;2.07;;;24.40;99.90;;;;;;5118836;28;20223;-84
2022/09/06 13:49:46;;;;;;;7.87;2.90;;;;;;;;;;5117640;28;20176;-84
2022/09/06 13:52:12;;;;;;;12.33;2.67;;;24.30;99.90;;;;;;5117941;28;20216;-85
2022/09/06 13:54:38;;;;;;;11.57;2.40;;;24.30;99.90;;;;;;5116427;28;20230;-83
2022/09/06 13:57:04;;;;;;;13.07;3.10;;;24.20;99.90;;;;;;5119698;28;20171;-85
2022/09/06 13:59:30;;;;;;;12.50;3.10;;;24.10;99.90;;;;;;5119879;28;20175;-84
2022/09/06 14:02:04;;;;;;;6.73;2.10;;;24.00;99.90;;;;;;5120381;28;20192;-84
2022/09/06 14:04:31;;;;;;;8.53;2.90;;;23.90;99.90;;;;;;5119931;28;20170;-81
2022/09/06 14:06:57;;;;;;;6.70;2.40;;;23.90;99.90;;;;;;5119452;28;20200;-83
2022/09/06 14:09:23;;;;;;;6.43;2.10;;;;;;;;;;5120427;28;20182;-84
2022/09/06 14:11:49;;;;;;;12.40;2.60;;;;;;;;;;5122681;28;20186;-84
2022/09/06 14:14:16;;;;;;;8.50;2.47;;;23.90;99.90;;;;;;5122849;28;20228;-84
2022/09/06 14:16:42;;;;;;;9.47;2.60;;;;;;;;;;5120514;28;20198;-84
2022/09/06 14:19:09;;;;;;;9.57;2.83;;;;;;;;;;5135748;28;20187;-82
2022/09/06 14:21:35;;;;;;;12.57;2.67;;;;;;;;;;5129849;28;20621;-84
2022/09/06 14:24:01;;;;;;;9.37;2.80;;;24.10;99.90;;;;;;5117466;28;20514;-82
2022/09/06 14:26:28;;;;;;;8.07;3.00;;;24.30;99.90;;;;;;5116144;28;20227;-83
2022/09/06 14:28:54;;;;;;;9.53;2.67;;;;;;;;;;5115485;28;20192;-82
2022/09/06 14:31:24;;;;;;;12.13;2.80;;;24.30;99.90;;;;;;5116370;28;20201;-82
2022/09/06 14:33:50;;;;;;;9.77;2.63;;;;;;;;;;5117179;28;20214;-83
2022/09/06 14:36:18;;;;;;;8.77;2.53;;;24.30;99.90;;;;;;5117408;28;20178;-83
2022/09/06 14:38:45;;;;;;;7.93;2.80;;;24.20;99.90;;;;;;5121217;28;20208;-83
2022/09/06 14:41:14;;;;;;;9.37;2.80;;;24.00;99.90;;;;;;5121439;28;20208;-84
2022/09/06 14:43:42;;;;;;;8.27;2.43;;;24.20;99.90;;;;;;5121249;28;20177;-85
2022/09/06 14:46:11;;;;;;;10.30;2.87;;;24.10;99.90;;;;;;5122381;28;20583;-82
2022/09/06 14:48:37;;;;;;;9.63;2.93;;;24.00;99.90;;;;;;5120045;28;20179;-82
2022/09/06 14:51:07;;;;;;;7.97;2.67;;;23.80;99.90;;;;;;5120254;28;20596;-81